Anne I — VRPR9 — position and weather

sailwx.info

Track history (hours):
 
Tides and Currents Weather Stations Pressure Air Temp Water Temp Dewpoint Dewpoint Depression Visibility Wind Speed Wind Dir Waves Ship Positions

Anne I

Last reported at 2018-Mar-21 17:51 UTC. Time now 2018-Apr-27 02:28 UTC.
Position N 01°17' E 104°01'.
Warning: this ship's position is 36 days out of date.

Length 190 m; draft 12.8 m.

Type: Ship. MMSI: 477129900.

Date/timePositionNaut miles runAvg speedWind from/ knotsBaromVisibWave heightAir tempDewpointWater temp
2018-Mar-21 17:51N 01°17' E 104°01'1 0.1
2018-Mar-21 08:12N 01°18' E 104°00'0 0.0
2018-Mar-21 07:57N 01°18' E 104°00'0 0.0
2018-Mar-21 07:27N 01°18' E 104°00'0 0.0
2018-Mar-21 04:31N 01°18' E 104°00'0 0.5
2018-Mar-21 04:30N 01°18' E 104°00'4 4.1
2018-Mar-21 03:37N 01°16' E 103°57'0 3.4
2018-Mar-21 03:29N 01°15' E 103°57'1 1.9
2018-Mar-21 02:43N 01°15' E 103°58'1 5.2
2018-Mar-21 02:31N 01°15' E 103°59'2 4.2
2018-Mar-21 01:55N 01°14' E 103°57'3 6.8
2018-Mar-21 01:30N 01°13' E 103°54'5 9.2
2018-Mar-21 01:00N 01°11' E 103°50'611.5
2018-Mar-21 00:30N 01°08' E 103°46'611.8
2018-Mar-21 00:00N 01°04' E 103°41'5 9.6
2018-Mar-20 23:30N 01°04' E 103°36'610.8
2018-Mar-20 22:59N 01°07' E 103°32'511.2
2018-Mar-20 22:30N 01°10' E 103°27'611.2
2018-Mar-20 22:00N 01°13' E 103°23'610.9
2018-Mar-20 21:30N 01°17' E 103°18'  
Track history (hours):
 
Tides and Currents Weather Stations Pressure Air Temp Water Temp Dewpoint Dewpoint Depression Visibility Wind Speed Wind Dir Waves Ship Positions

Anne I

Last reported at 2018-Mar-21 17:51 UTC. Time now 2018-Apr-27 02:28 UTC.
Position N 01°17' E 104°01'.
Warning: this ship's position is 36 days out of date.

Length 190 m; draft 12.8 m.

Type: Ship. MMSI: 477129900.

Date/timePositionNaut miles runAvg speedWind from/ knotsBaromVisibWave heightAir tempDewpointWater temp
2018-Mar-21 17:51N 01°17' E 104°01'1 0.1
2018-Mar-21 08:12N 01°18' E 104°00'0 0.0
2018-Mar-21 07:57N 01°18' E 104°00'0 0.0
2018-Mar-21 07:27N 01°18' E 104°00'0 0.0
2018-Mar-21 04:31N 01°18' E 104°00'0 0.5
2018-Mar-21 04:30N 01°18' E 104°00'4 4.1
2018-Mar-21 03:37N 01°16' E 103°57'0 3.4
2018-Mar-21 03:29N 01°15' E 103°57'1 1.9
2018-Mar-21 02:43N 01°15' E 103°58'1 5.2
2018-Mar-21 02:31N 01°15' E 103°59'2 4.2
2018-Mar-21 01:55N 01°14' E 103°57'3 6.8
2018-Mar-21 01:30N 01°13' E 103°54'5 9.2
2018-Mar-21 01:00N 01°11' E 103°50'611.5
2018-Mar-21 00:30N 01°08' E 103°46'611.8
2018-Mar-21 00:00N 01°04' E 103°41'5 9.6
2018-Mar-20 23:30N 01°04' E 103°36'610.8
2018-Mar-20 22:59N 01°07' E 103°32'511.2
2018-Mar-20 22:30N 01°10' E 103°27'611.2
2018-Mar-20 22:00N 01°13' E 103°23'610.9
2018-Mar-20 21:30N 01°17' E 103°18'  

Dump ship's entire track history